• Join FlightAware (Why Join?)
  • Login
  • US Flag 
12:16PM EST


 

Airport Tracker/Info


-or-


 

Live Flight TrackerFlight Track Log ✈ JZA8145 ✈ 13-Jul-2013 ✈ CYEG - CYYC

Flight Track Log - Related Links

Times and Time Zones

All times are in EDT time to prevent confusion due to time zone crossing. See the JZA8145 flight status page for this flight to view local times or setup timezone preferences in your user account.

Time Position Orientation Groundspeed Altitude Reporting Facility
EDT Latitude Longitude Course Direction KTS MPH feet Rate Location/Type
02:58PM 53.2667 -113.5833 184° South 120 138 3,400  Level Edmonton Center
02:59PM 53.2333 -113.5333 138° Southeast 140 161 4,800 1,260 Climbing Edmonton Center
03:00PM 53.1833 -113.5667 202° Southwest 180 207 6,000 1,320 Climbing Edmonton Center
03:01PM 53.0911 -113.8289 163° South  Level FlightAware Approximate
03:01PM 53.1333 -113.5500 169° South 180 207 7,500  Level Edmonton Center
03:02PM 53.0158 -113.7997 169° South  Level FlightAware Approximate
03:02PM 53.0833 -113.5667 191° South 180 207 8,800  Level Edmonton Center
03:03PM 52.9515 -113.8074 184° South  Level Estimated
03:03PM 53.0333 -113.5500 169° South 190 219 10,200  Level Edmonton Center
03:04PM 52.9667 -113.5667 189° South 190 219 11,300 1,080 Climbing Edmonton Center
03:05PM 52.9167 -113.5667 180° South 200 230 12,400 1,080 Climbing Edmonton Center
03:06PM 52.8500 -113.5833 189° South 200 230 13,500 1,140 Climbing Edmonton Center
03:07PM 52.8000 -113.5667 169° South 200 230 14,700 720 Climbing Edmonton Center
03:08PM 52.7333 -113.5833 189° South 220 253 15,000 120 Climbing Edmonton Center
03:09PM 52.6667 -113.5667 171° South 250 288 15,000  Level Edmonton Center
03:10PM 52.6000 -113.5833 189° South 260 299 15,000  Level Edmonton Center
03:11PM 52.5333 -113.6000 189° South 270 311 15,000  Level Edmonton Center
03:12PM 52.4500 -113.5833 173° South 270 311 15,000  Level Edmonton Center
03:13PM 52.3833 -113.5833 180° South 270 311 15,000  Level Edmonton Center
03:14PM 52.3000 -113.5667 173° South 270 311 15,000  Level Edmonton Center
03:15PM 52.2333 -113.5833 189° South 260 299 15,000  Level Edmonton Center
03:16PM 52.1500 -113.6000 187° South 270 311 15,000  Level Edmonton Center
03:17PM 52.0667 -113.6167 187° South 270 311 15,000  Level Edmonton Center
03:18PM 52.0000 -113.6000 171° South 270 311 15,000  Level Edmonton Center
03:19PM 51.9167 -113.6000 180° South 270 311 15,000 -60 Level Edmonton Center
03:20PM 51.8500 -113.6167 189° South 270 311 14,900 -180 Descending Edmonton Center
03:21PM 51.7667 -113.6333 187° South 270 311 14,700 -240 Descending Edmonton Center
03:22PM 51.7000 -113.6667 197° South 270 311 14,500 -240 Descending Edmonton Center
03:23PM 51.6167 -113.6833 187° South 280 322 14,300 -240 Descending Edmonton Center
03:24PM 51.5333 -113.7167 194° South 280 322 14,100 -600 Descending Edmonton Center
03:25PM 51.5000 -113.8167 242° Southwest 280 322 13,200 -960 Descending Edmonton Center
03:26PM 51.4333 -113.9167 223° Southwest 280 322 12,200 -1,020 Descending Edmonton Center
03:27PM 51.3833 -113.9833 220° Southwest 280 322 11,200 -1,020 Descending Edmonton Center
03:28PM 51.3500 -114.1167 248° West 270 311 10,200 -1,140 Descending Edmonton Center
03:29PM 51.3333 -114.2000 252° West 260 299 9,000 -900 Descending Edmonton Center
03:30PM 51.2667 -114.2667 212° Southwest 210 242 8,400 -600 Descending Edmonton Center
03:31PM 51.2167 -114.3000 203° Southwest 200 230 7,900 -900 Descending Edmonton Center
03:32PM 51.1667 -114.2667 157° South 200 230 6,700 -1,080 Descending Edmonton Center
03:33PM 51.1333 -114.2000 129° Southeast 190 219 5,800 -900 Descending Edmonton Center